Latest Weather Observations for Julia Creek

IDQ60801

Issued at 3:02 pm EST Tuesday 28 April 2015 (issued every 30 minutes, with the page automatically refreshed every 10 minutes)

About weather observations | Map of weather stations | Latest weather observations for QLD | Other Formats
Station Details ID: 029058 Name: JULIA CREEK AIRPORT Lat: -20.67 Lon: 141.72 Height: 122.5 m
Data from the previous 72 hours. | See also: Recent months at Julia Creek
Date/Time
EST
Temp
°C
App
Temp
°C
Dew
Point
Rel
Hum
%
Delta-T
°C
Wind Press
QNH
hPa
Press
MSL
hPa
Rain
since 9 am
mm
Dir
 
Spd
km/h
Gust
km/h
Spd
kts
Gust
kts
28/03:00pm 30.5 24.2 -1.0 13 14.9 SSE 22 35 12 19 1015.0 1014.3 0.0
28/02:30pm 29.7 24.0 -0.6 14 14.4 SE 19 32 10 17 1015.6 1014.9 0.0
28/02:00pm 29.6 24.4 0.2 15 14.1 SSE 17 30 9 16 1016.1 1015.4 0.0
28/01:30pm 28.8 23.0 -0.4 15 13.8 ESE 20 32 11 17 1016.7 1016.0 0.0
28/01:00pm 27.9 21.3 -0.2 16 13.2 SE 24 33 13 18 1017.3 1016.6 0.0
28/12:30pm 27.9 22.2 0.6 17 13.0 SE 20 33 11 18 1017.8 1017.1 0.0
28/12:00pm 26.9 20.4 0.6 18 12.5 SE 24 35 13 19 1018.6 1017.9 0.0
28/11:30am 26.2 19.5 1.5 20 11.9 SE 26 37 14 20 1019.2 1018.6 0.0
28/11:00am 25.6 18.6 1.7 21 11.4 ESE 28 39 15 21 1019.7 1019.1 0.0
28/10:30am 24.8 17.4 1.7 22 11.0 SE 30 37 16 20 1020.0 1019.4 0.0
28/10:00am 23.2 15.5 2.1 25 10.0 SE 32 37 17 20 1020.4 1019.8 0.0
28/09:30am 21.4 13.5 1.1 26 9.3 SE 32 37 17 20 1020.3 1019.7 0.0
28/09:00am 20.2 11.7 0.6 27 8.8 SE 35 41 19 22 1020.4 1019.8 0.0
28/08:30am 18.6 12.2 0.7 30 7.9 SSE 24 33 13 18 1020.4 1019.8 0.0
28/08:00am 15.2 9.4 -0.1 35 6.5 SSE 20 24 11 13 1020.0 1019.4 0.0
28/07:30am 11.8 7.2 -1.3 40 5.2 S 13 17 7 9 1019.7 1019.1 0.0
28/07:00am 9.9 5.5 -2.7 41 4.8 S 11 13 6 7 1019.4 1018.8 0.0
28/06:30am 9.8 5.6 -3.5 39 4.9 S 9 11 5 6 1019.1 1018.5 0.0
28/06:00am 11.3 6.9 -2.8 37 5.4 SSE 11 15 6 8 1018.7 1018.0 0.0
28/05:30am 12.4 7.6 -2.6 35 5.9 SSE 13 15 7 8 1018.6 1017.9 0.0
28/05:00am 12.2 7.3 -3.2 34 5.9 SE 13 15 7 8 1018.1 1017.4 0.0
28/04:30am 13.3 8.1 -2.6 33 6.3 SSE 15 19 8 10 1018.0 1017.3 0.0
28/04:00am 12.4 7.8 -3.8 32 6.1 SSE 11 13 6 7 1018.1 1017.4 0.0
28/03:30am 13.5 8.2 -3.7 30 6.6 SSE 15 17 8 9 1018.1 1017.4 0.0
28/03:00am 13.4 8.5 -3.8 30 6.6 SSE 13 17 7 9 1018.1 1017.4 0.0
28/02:30am 13.4 8.8 -4.2 29 6.7 SSE 11 13 6 7 1018.2 1017.5 0.0
28/02:00am 14.5 9.5 -4.2 27 7.2 SSE 13 17 7 9 1018.5 1017.8 0.0
28/01:30am 14.9 9.5 -4.4 26 7.4 S 15 19 8 10 1018.3 1017.6 0.0
28/01:00am 14.8 9.3 -5.0 25 7.5 SSE 15 17 8 9 1018.8 1018.1 0.0
28/12:30am 15.2 9.4 -4.7 25 7.7 SSE 17 19 9 10 1019.0 1018.3 0.0
28/12:00am 14.7 9.2 -5.1 25 7.5 S 15 19 8 10 1019.2 1018.6 0.0
 
Date/Time
EST
Temp
°C
App
Temp
°C
Dew
Point
Rel
Hum
%
Delta-T
°C
Wind Press
QNH
hPa
Press
MSL
hPa
Rain
since 9 am
mm
Dir
 
Spd
km/h
Gust
km/h
Spd
kts
Gust
kts
27/11:30pm 13.5 7.9 -6.1 25 7.2 S 15 15 8 8 1019.2 1018.6 0.0
27/11:00pm 12.9 7.7 -6.6 25 7.0 S 13 15 7 8 1019.2 1018.6 0.0
27/10:30pm 14.2 9.0 -6.6 23 7.6 S 13 15 7 8 1019.3 1018.7 0.0
27/10:00pm 14.8 9.6 -6.1 23 7.7 SSE 13 13 7 7 1019.2 1018.6 0.0
27/09:30pm 17.1 12.0 -5.4 21 8.7 SSE 13 13 7 7 1019.0 1018.3 0.0
27/09:00pm 19.4 13.6 -4.8 19 9.7 SSE 17 19 9 10 1018.7 1018.0 0.0
27/08:30pm 20.4 14.6 -4.7 18 10.2 SSE 17 20 9 11 1018.4 1017.7 0.0
27/08:00pm 20.4 14.6 -4.7 18 10.2 SSE 17 19 9 10 1017.9 1017.2 0.0
27/07:30pm 20.3 15.2 -5.5 17 10.3 SSE 13 15 7 8 1017.6 1016.9 0.0
27/07:00pm 22.5 17.0 -5.4 15 11.4 SSE 15 19 8 10 1017.1 1016.4 0.0
27/06:30pm 24.6 18.2 -4.6 14 12.3 SSE 20 24 11 13 1016.7 1016.0 0.0
27/06:00pm 26.4 19.6 -5.3 12 13.4 SSE 22 30 12 16 1016.3 1015.6 0.0
27/05:30pm 27.5 19.5 -5.6 11 14.1 SSE 28 35 15 19 1016.1 1015.4 0.0
27/05:00pm 28.3 21.1 -4.9 11 14.4 SSE 24 35 13 19 1016.0 1015.3 0.0
27/04:30pm 28.3 20.8 -4.9 11 14.4 SSE 26 35 14 19 1015.8 1015.1 0.0
27/04:00pm 28.2 20.5 -6.3 10 14.6 SSE 26 37 14 20 1015.7 1015.0 0.0
27/03:30pm 29.1 21.9 -5.6 10 15.0 SSE 24 35 13 19 1015.9 1015.2 0.0
27/03:00pm 28.8 21.5 -5.8 10 14.8 SE 24 35 13 19 1016.0 1015.3 0.0
27/02:30pm 28.1 21.3 -5.1 11 14.4 SE 22 33 12 18 1016.0 1015.3 0.0
27/02:00pm 29.2 22.6 -3.1 12 14.6 SE 22 35 12 19 1016.4 1015.7 0.0
27/01:30pm 27.7 20.6 -4.3 12 14.0 SE 24 37 13 20 1016.7 1016.0 0.0
27/01:00pm 27.5 20.1 -3.3 13 13.7 SE 26 37 14 20 1017.2 1016.5 0.0
27/12:30pm 27.0 20.2 -1.8 15 13.1 SE 24 41 13 22 1017.5 1016.8 0.0
27/12:00pm 26.1 18.6 -1.7 16 12.5 SE 28 39 15 21 1018.3 1017.6 0.0
27/11:30am 25.9 18.5 -1.0 17 12.3 SE 28 37 15 20 1018.8 1018.1 0.0
27/11:00am 24.6 16.5 -0.5 19 11.4 ESE 32 41 17 22 1019.3 1018.7 0.0
27/10:30am 23.8 15.6 0.2 21 10.9 ESE 33 41 18 22 1019.7 1019.1 0.0
27/10:00am 22.7 14.4 -0.1 22 10.3 ESE 33 43 18 23 1020.0 1019.4 0.0
27/09:30am 21.6 13.5 0.8 25 9.5 SE 33 41 18 22 1020.2 1019.6 0.0
27/09:00am 19.5 11.9 0.5 28 8.5 SE 30 41 16 22 1020.3 1019.7 0.0
27/08:30am 17.9 9.9 0.1 30 7.8 SE 32 41 17 22 1020.2 1019.6 0.0
27/08:00am 15.4 8.8 -0.4 34 6.7 SSE 24 33 13 18 1019.8 1019.2 0.0
27/07:30am 12.5 6.9 -2.5 35 5.9 SSE 17 22 9 12 1019.7 1019.1 0.0
27/07:00am 10.9 6.1 -2.8 38 5.2 SSE 13 17 7 9 1019.6 1019.0 0.0
27/06:30am 10.7 5.5 -2.7 39 5.1 SSE 15 19 8 10 1019.2 1018.6 0.0
27/06:00am 10.3 5.0 -3.7 37 5.2 SSE 15 17 8 9 1018.9 1018.2 0.0
27/05:30am 10.5 4.8 -3.9 36 5.3 SSE 17 19 9 10 1018.8 1018.1 0.0
27/05:00am 10.4 5.3 -4.8 34 5.5 SSE 13 15 7 8 1018.6 1017.9 0.0
27/04:30am 11.7 5.5 -4.4 32 6.0 SSE 19 22 10 12 1018.2 1017.5 0.0
27/04:00am 11.9 5.7 -4.7 31 6.1 SSE 19 24 10 13 1017.9 1017.2 0.0
27/03:30am 12.0 6.2 -5.0 30 6.3 SSE 17 20 9 11 1018.0 1017.3 0.0
27/03:00am 11.9 6.4 -5.5 29 6.3 SSE 15 19 8 10 1018.3 1017.6 0.0
27/02:30am 13.1 6.9 -5.0 28 6.8 SSE 19 24 10 13 1018.1 1017.4 0.0
27/02:00am 13.9 7.5 -4.8 27 7.1 SSE 20 24 11 13 1018.1 1017.4 0.0
27/01:30am 13.9 7.5 -4.8 27 7.1 SSE 20 24 11 13 1018.2 1017.5 0.0
27/01:00am 12.7 7.2 -5.3 28 6.6 SSE 15 17 8 9 1018.5 1017.8 0.0
27/12:30am 14.3 8.5 -4.9 26 7.3 SSE 17 19 9 10 1018.7 1018.0 0.0
27/12:00am 15.4 9.6 -4.5 25 7.7 SSE 17 20 9 11 1018.7 1018.0 0.0
 
Date/Time
EST
Temp
°C
App
Temp
°C
Dew
Point
Rel
Hum
%
Delta-T
°C
Wind Press
QNH
hPa
Press
MSL
hPa
Rain
since 9 am
mm
Dir
 
Spd
km/h
Gust
km/h
Spd
kts
Gust
kts
26/11:30pm 15.3 9.5 -4.6 25 7.7 ESE 17 22 9 12 1018.8 1018.1 0.0
26/11:00pm 15.0 9.2 -4.8 25 7.6 S 17 17 9 9 1018.6 1017.9 0.0
26/10:30pm 15.1 9.6 -5.3 24 7.7 SSE 15 15 8 8 1018.7 1018.0 0.0
26/10:00pm 16.2 10.8 -4.4 24 8.0 SSE 15 17 8 9 1018.9 1018.2 0.0
26/09:30pm 16.9 11.5 -4.3 23 8.4 SSE 15 17 8 9 1018.7 1018.0 0.0
26/09:00pm 16.7 11.7 -4.5 23 8.3 SSE 13 17 7 9 1018.5 1017.8 0.0
26/08:30pm 17.9 12.9 -4.7 21 8.9 S 13 15 7 8 1018.1 1017.4 0.0
26/08:00pm 18.4 13.4 -4.3 21 9.1 SSE 13 15 7 8 1017.7 1017.0 0.0
26/07:30pm 21.4 16.2 -3.1 19 10.4 SE 15 17 8 9 1017.2 1016.5 0.0
26/07:00pm 22.8 17.2 -2.7 18 11.0 SSE 17 20 9 11 1016.7 1016.0 0.0
26/06:30pm 24.4 18.5 -2.2 17 11.8 SSE 19 20 10 11 1016.4 1015.7 0.0
26/06:00pm 26.0 19.5 -2.6 15 12.7 SSE 22 32 12 17 1016.2 1015.5 0.0
26/05:30pm 27.1 20.0 -0.9 16 13.0 SSE 26 35 14 19 1015.7 1015.0 0.0
26/05:00pm 27.6 20.6 -0.5 16 13.1 SSE 26 37 14 20 1015.3 1014.6 0.0
26/04:30pm 28.0 20.7 -0.1 16 13.3 SSE 28 41 15 22 1015.2 1014.5 0.0
26/04:00pm 28.0 20.6 -1.0 15 13.5 S 28 39 15 21 1015.2 1014.5 0.0
26/03:30pm 28.6 22.0 -0.5 15 13.7 SSE 24 41 13 22 1015.2 1014.5 0.0
26/03:00pm 28.2 20.8 -0.9 15 13.6 SSE 28 37 15 20 1015.4 1014.7 0.0
26/02:30pm 28.1 20.7 -0.9 15 13.5 SE 28 43 15 23 1015.8 1015.1 0.0
26/02:00pm 27.2 19.9 0.1 17 12.8 SSE 28 43 15 23 1016.2 1015.5 0.0
26/01:30pm 27.1 19.8 0.0 17 12.7 SE 28 44 15 24 1016.6 1015.9 0.0
26/01:00pm 27.8 20.8 2.1 19 12.6 SSE 28 39 15 21 1017.0 1016.3 0.0
26/12:30pm 25.9 18.8 1.2 20 11.8 SSE 28 39 15 21 1017.7 1017.0 0.0
26/12:00pm 25.5 18.5 2.2 22 11.2 SE 28 39 15 21 1018.4 1017.7 0.0
26/11:30am 24.3 17.0 2.5 24 10.5 SSE 30 43 16 23 1018.9 1018.2 0.0
26/11:00am 23.7 16.5 3.1 26 10.0 SE 30 43 16 23 1019.5 1018.9 0.0
26/10:30am 22.7 15.0 3.3 28 9.4 SE 33 44 18 24 1020.1 1019.5 0.0
26/10:00am 21.8 13.7 3.5 30 8.8 SE 35 44 19 24 1020.4 1019.8 0.0
26/09:30am 20.5 12.9 2.8 31 8.3 SSE 32 41 17 22 1020.3 1019.7 0.0
26/09:00am 19.0 12.5 2.4 33 7.7 SSE 26 32 14 17 1020.1 1019.5 0.0
26/08:30am 16.4 10.8 0.9 35 6.8 SSE 20 26 11 14 1019.6 1019.0 0.0
26/08:00am 14.4 8.9 0.3 38 6.0 S 19 20 10 11 1018.9 1018.2 0.0
26/07:30am 11.6 6.2 -1.2 41 5.1 S 17 20 9 11 1018.5 1017.8 0.0
26/07:00am 8.4 3.2 -3.1 44 4.2 S 15 17 8 9 1018.2 1017.5 0.0
26/06:30am 8.5 3.6 -3.0 44 4.3 S 13 13 7 7 1017.9 1017.2 0.0
26/06:00am 8.8 3.9 -3.1 43 4.4 S 13 15 7 8 1017.9 1017.2 0.0
26/05:30am 9.4 5.3 -2.8 42 4.6 S 9 13 5 7 1017.8 1017.1 0.0
26/05:00am 10.2 5.8 -2.8 40 4.9 S 11 11 6 6 1017.5 1016.8 0.0
26/04:30am 12.2 7.9 -2.0 37 5.6 S 11 13 6 7 1017.2 1016.5 0.0
26/04:00am 13.7 8.6 -1.9 34 6.3 S 15 19 8 10 1017.0 1016.3 0.0
26/03:30am 14.7 8.9 -1.4 33 6.6 S 19 24 10 13 1016.9 1016.2 0.0
26/03:00am 15.3 9.5 -1.3 32 6.9 S 19 28 10 15 1017.0 1016.3 0.0
26/02:30am 15.6 8.5 -1.0 32 6.9 SSW 26 32 14 17 1016.7 1016.0 0.0
26/02:00am 15.7 9.7 -1.4 31 7.1 S 20 26 11 14 1017.1 1016.4 0.0
26/01:30am 16.4 10.4 -1.2 30 7.4 S 20 24 11 13 1017.1 1016.4 0.0
26/01:00am 17.2 11.5 -1.0 29 7.7 S 19 24 10 13 1017.4 1016.7 0.0
26/12:30am 18.2 12.0 -0.1 29 8.0 S 22 30 12 16 1017.4 1016.7 0.0
26/12:00am 19.2 12.3 0.3 28 8.4 S 26 32 14 17 1017.6 1016.9 0.0
 
Date/Time
EST
Temp
°C
App
Temp
°C
Dew
Point
Rel
Hum
%
Delta-T
°C
Wind Press
QNH
hPa
Press
MSL
hPa
Rain
since 9 am
mm
Dir
 
Spd
km/h
Gust
km/h
Spd
kts
Gust
kts
25/11:30pm 20.1 12.5 0.5 27 8.8 S 30 37 16 20 1017.3 1016.6 0.0
25/11:00pm 20.4 13.2 0.8 27 8.9 S 28 35 15 19 1017.1 1016.4 0.0
25/10:30pm 20.7 13.9 1.1 27 9.0 S 26 33 14 18 1017.2 1016.5 0.0
25/10:00pm 20.9 14.1 0.7 26 9.2 S 26 32 14 17 1017.2 1016.5 0.0
25/09:30pm 21.4 14.6 0.6 25 9.5 S 26 33 14 18 1017.1 1016.4 0.0
25/09:00pm 21.7 15.6 0.3 24 9.7 S 22 28 12 15 1016.8 1016.1 0.0
25/08:30pm 22.3 16.3 0.8 24 9.9 S 22 28 12 15 1016.5 1015.8 0.0
25/08:00pm 22.5 17.0 0.9 24 10.0 S 19 24 10 13 1016.2 1015.5 0.0
25/07:30pm 23.5 18.1 1.2 23 10.4 S 19 24 10 13 1015.7 1015.0 0.0
25/07:00pm 24.7 19.4 1.6 22 11.0 S 19 24 10 13 1015.1 1014.4 0.0
25/06:30pm 25.9 19.7 1.9 21 11.6 S 24 32 13 17 1014.7 1014.0 0.0
25/06:00pm 27.1 20.4 1.5 19 12.4 S 26 33 14 18 1014.3 1013.6 0.0
25/05:30pm 28.2 20.8 1.7 18 12.9 S 30 41 16 22 1013.8 1013.2 0.0
25/05:00pm 29.0 22.3 1.5 17 13.5 S 26 33 14 18 1013.4 1012.8 0.0
25/04:30pm 29.4 22.6 1.0 16 13.8 SSE 26 35 14 19 1013.1 1012.5 0.0
25/04:00pm 29.8 23.1 1.3 16 14.0 SSE 26 39 14 21 1012.9 1012.3 0.0
25/03:30pm 29.9 22.8 1.4 16 14.0 S 28 41 15 22 1012.7 1012.1 0.0

Other Formats:

Comma delimited format used in spreadsheet applications
http://www.bom.gov.au/fwo/IDQ60801/IDQ60801.94337.axf

JavaScript Object Notation format (JSON) in row-major order
http://www.bom.gov.au/fwo/IDQ60801/IDQ60801.94337.json